Time;durP1;ratioP1;P1;durP2;ratioP2;P2;SDS_P1;SDS_P2;PMS_P1;PMS_P2;Temp;Humidity;BMP_temperature;BMP_pressure;BME280_temperature;BME280_humidity;BME280_pressure;Samples;Min_cycle;Max_cycle;Signal;HPM_P1;HPM_P2
2022/01/13 00:02:12;;;;;;;106.90;39.13;;;;;;;-3.49;76.30;100291.38;5089681;28;20562;-75
2022/01/13 00:04:38;;;;;;;101.82;38.03;;;;;;;-3.44;76.20;100293.59;5110070;28;20035;-74
2022/01/13 00:07:03;;;;;;;125.82;44.25;;;;;;;-3.40;76.38;100291.44;5109900;28;20024;-75
2022/01/13 00:09:29;;;;;;;129.73;44.63;;;;;;;-3.37;76.55;100289.25;5110414;28;20032;-74
2022/01/13 00:11:56;;;;;;;118.93;42.30;;;;;;;-3.32;76.24;100286.94;5110398;28;20023;-75
2022/01/13 00:24:50;;;;;;;96.72;38.03;;;;;;;-3.19;76.16;100289.19;5109072;28;20035;-74
2022/01/13 00:27:16;;;;;;;92.47;35.67;;;;;;;-3.16;76.40;100286.19;5109313;28;20024;-75
2022/01/13 00:29:44;;;;;;;88.43;34.13;;;;;;;-3.16;76.94;100280.81;5109765;28;20387;-74
2022/01/13 00:32:13;;;;;;;95.03;40.28;;;;;;;-3.14;76.36;100281.50;5109513;28;20027;-74
2022/01/13 00:34:38;;;;;;;96.68;36.88;;;;;;;-3.10;76.06;100291.91;5109613;28;20019;-73
2022/01/13 00:37:04;;;;;;;95.38;37.25;;;;;;;-3.07;76.34;100297.81;5108933;28;20027;-74
2022/01/13 00:39:29;;;;;;;93.78;35.33;;;;;;;-3.09;76.36;100307.88;5109879;28;20028;-74
2022/01/13 00:41:55;;;;;;;95.65;37.00;;;;;;;-3.07;76.42;100294.28;5108185;28;20047;-74
2022/01/13 00:44:21;;;;;;;91.00;39.38;;;;;;;-3.05;76.29;100290.41;5109008;28;20071;-74
2022/01/13 00:46:54;;;;;;;86.65;34.83;;;;;;;-3.01;76.26;100305.19;5109157;28;20081;-75
2022/01/13 00:49:19;;;;;;;88.03;32.33;;;;;;;-2.99;76.45;100310.41;5109666;28;20348;-74
2022/01/13 00:51:45;;;;;;;81.85;33.88;;;;;;;-2.97;76.24;100319.16;5109312;28;20034;-74
2022/01/13 00:54:10;;;;;;;86.80;34.63;;;;;;;-2.96;75.98;100317.28;5109308;28;20027;-74
2022/01/13 00:56:36;;;;;;;97.90;37.20;;;;;;;-2.95;76.36;100318.97;5105118;28;20027;-73
2022/01/13 00:59:13;;;;;;;91.88;38.72;;;;;;;-2.91;76.50;100339.13;5108135;28;20024;-74
2022/01/13 01:01:42;;;;;;;91.60;35.28;;;;;;;-2.91;76.17;100341.81;5109484;28;20024;-74
2022/01/13 01:04:08;;;;;;;84.20;33.85;;;;;;;-2.92;76.30;100340.13;5107716;28;20027;-75
2022/01/13 01:06:35;;;;;;;91.25;35.47;;;;;;;-2.88;76.21;100352.22;5109170;28;20391;-75
2022/01/13 01:09:00;;;;;;;92.30;36.35;;;;;;;-2.89;76.27;100350.56;5109706;28;20407;-74
2022/01/13 01:11:26;;;;;;;84.45;35.42;;;;;;;-2.91;76.31;100358.78;5109577;28;20032;-74
2022/01/13 01:13:56;;;;;;;87.95;35.03;;;;;;;-2.92;76.41;100361.63;5110016;28;20468;-74
2022/01/13 01:16:23;;;;;;;90.60;37.10;;;;;;;-2.92;76.34;100364.28;5090836;28;20027;-75
2022/01/13 01:18:59;;;;;;;93.43;36.78;;;;;;;-2.92;76.93;100357.09;5109166;28;20364;-75
2022/01/13 01:29:11;;;;;;;87.85;34.95;;;;;;;-2.88;78.08;100371.03;5108030;28;20542;-74
2022/01/13 01:31:39;;;;;;;83.20;33.60;;;;;;;-2.86;77.68;100369.88;5112837;28;20019;-74
2022/01/13 01:36:32;;;;;;;80.22;32.20;;;;;;;-2.82;77.95;100389.19;5113067;28;20116;-75
2022/01/13 01:38:59;;;;;;;79.60;31.85;;;;;;;-2.78;78.57;100385.19;5112492;28;20015;-74
2022/01/13 01:41:26;;;;;;;81.13;30.73;;;;;;;-2.74;78.39;100366.88;5112841;28;20039;-74
2022/01/13 01:43:55;;;;;;;79.70;31.17;;;;;;;-2.72;78.14;100343.41;5113072;28;20424;-74
2022/01/13 01:46:21;;;;;;;76.03;31.42;;;;;;;-2.67;78.59;100329.50;5110152;28;20092;-74
2022/01/13 01:48:46;;;;;;;80.03;32.78;;;;;;;-2.65;78.23;100322.94;5112825;28;20073;-74
2022/01/13 01:51:12;;;;;;;82.55;32.88;;;;;;;-2.64;78.94;100330.00;5112928;27;20027;-75
2022/01/13 01:53:37;;;;;;;83.78;35.45;;;;;;;-2.59;78.84;100342.91;5112991;28;20016;-75
2022/01/13 01:56:03;;;;;;;79.05;31.80;;;;;;;-2.58;78.81;100336.56;5112527;28;20019;-75
2022/01/13 01:58:29;;;;;;;80.30;31.40;;;;;;;-2.57;78.83;100330.16;5112236;28;20038;-75
2022/01/13 02:00:55;;;;;;;84.60;32.60;;;;;;;-2.59;79.33;100333.03;5112746;28;20015;-74
2022/01/13 02:03:23;;;;;;;85.38;36.08;;;;;;;-2.58;79.34;100305.16;5112862;28;20867;-74
2022/01/13 02:05:48;;;;;;;88.05;35.33;;;;;;;-2.54;79.10;100284.16;5112754;28;20019;-75
2022/01/13 02:08:14;;;;;;;75.13;33.92;;;;;;;-2.55;79.17;100283.34;5112556;28;20027;-74
2022/01/13 02:10:40;;;;;;;90.07;36.45;;;;;;;-2.50;79.18;100293.59;5112916;28;20016;-74
2022/01/13 02:13:10;;;;;;;91.43;37.00;;;;;;;-2.49;79.14;100289.06;5112641;28;20585;-74
2022/01/13 02:15:47;;;;;;;81.78;33.88;;;;;;;-2.42;79.00;100290.06;5112361;28;20043;-74
2022/01/13 02:18:15;;;;;;;83.32;37.45;;;;;;;-2.43;79.24;100297.28;5111432;28;20028;-74
2022/01/13 02:20:50;;;;;;;77.65;30.70;;;;;;;-2.38;79.39;100328.22;5112365;28;20080;-74
2022/01/13 02:23:28;;;;;;;80.70;35.15;;;;;;;-2.40;78.99;100325.66;5111004;28;20027;-74
2022/01/13 02:25:53;;;;;;;87.00;36.25;;;;;;;-2.37;78.96;100327.19;5092323;28;20463;-74
2022/01/13 02:28:19;;;;;;;86.60;35.47;;;;;;;-2.38;78.66;100314.78;5112002;28;20164;-74
2022/01/13 02:30:45;;;;;;;85.80;34.50;;;;;;;-2.33;78.79;100332.06;5094130;28;20163;-74
2022/01/13 02:33:10;;;;;;;80.25;35.90;;;;;;;-2.33;78.96;100334.75;5112298;28;20024;-74
2022/01/13 02:35:36;;;;;;;86.10;34.10;;;;;;;-2.28;79.11;100326.22;5112310;28;20036;-73
2022/01/13 02:38:08;;;;;;;83.18;34.47;;;;;;;-2.26;78.82;100338.47;5110481;28;20418;-74
2022/01/13 02:40:33;;;;;;;80.20;35.35;;;;;;;-2.22;78.98;100327.38;5111618;28;20395;-73
2022/01/13 02:42:58;;;;;;;80.82;34.35;;;;;;;-2.19;78.55;100313.63;5092770;28;20020;-73
2022/01/13 02:45:32;;;;;;;79.93;32.78;;;;;;;-2.19;78.61;100294.81;5112129;28;20102;-73
2022/01/13 02:48:11;;;;;;;72.65;32.25;;;;;;;-2.19;78.94;100289.44;5110478;27;20024;-73
2022/01/13 02:50:39;;;;;;;71.97;31.05;;;;;;;-2.14;78.36;100290.59;5110781;28;20052;-73
2022/01/13 02:53:06;;;;;;;66.53;30.83;;;;;;;-2.11;78.80;100282.19;5111740;28;20423;-73
2022/01/13 02:55:32;;;;;;;79.80;33.40;;;;;;;-2.08;79.27;100274.78;5111495;28;20023;-74
2022/01/13 02:57:57;;;;;;;70.53;30.83;;;;;;;-2.07;78.77;100285.41;5111055;28;20027;-73
2022/01/13 03:00:23;;;;;;;68.95;30.80;;;;;;;-2.05;78.64;100291.44;5111894;28;20043;-73
2022/01/13 03:02:48;;;;;;;70.40;31.48;;;;;;;-2.03;78.73;100283.19;5111892;28;20028;-74
2022/01/13 03:05:15;;;;;;;78.55;31.95;;;;;;;-1.98;78.58;100287.06;5111534;28;20731;-73
2022/01/13 03:07:41;;;;;;;68.50;31.05;;;;;;;-1.94;78.45;100306.41;5092698;28;20391;-73
2022/01/13 03:10:08;;;;;;;69.68;31.38;;;;;;;-1.89;78.67;100303.19;5111529;28;20012;-74
2022/01/13 03:12:36;;;;;;;63.65;30.95;;;;;;;-1.86;78.56;100302.84;5110763;28;20030;-73
2022/01/13 03:15:02;;;;;;;71.65;33.50;;;;;;;-1.84;78.88;100320.53;5111091;28;20459;-74
2022/01/13 03:17:27;;;;;;;74.40;34.20;;;;;;;-1.82;78.30;100325.72;5110496;28;20084;-74
2022/01/13 03:19:53;;;;;;;68.20;31.10;;;;;;;-1.82;78.68;100314.97;5110314;28;20042;-73
2022/01/13 03:22:18;;;;;;;74.30;32.33;;;;;;;-1.81;78.28;100316.63;5110817;28;20383;-73
2022/01/13 03:24:44;;;;;;;78.57;33.88;;;;;;;-1.82;78.41;100307.72;5110374;28;20035;-73
2022/01/13 03:27:18;;;;;;;71.72;31.75;;;;;;;-1.81;78.32;100306.72;5109492;28;20081;-73
2022/01/13 03:29:43;;;;;;;65.97;30.83;;;;;;;-1.76;78.20;100299.97;5109305;28;20032;-74
2022/01/13 03:32:08;;;;;;;61.97;30.80;;;;;;;-1.76;78.37;100297.28;5108430;28;20700;-72
2022/01/13 03:34:34;;;;;;;68.72;29.80;;;;;;;-1.74;78.29;100301.50;5109032;28;20033;-73
2022/01/13 03:36:59;;;;;;;67.68;31.85;;;;;;;-1.73;78.40;100287.03;5109137;28;20019;-73
2022/01/13 03:39:24;;;;;;;77.65;35.25;;;;;;;-1.73;78.46;100286.19;5109435;28;20115;-73
2022/01/13 03:41:50;;;;;;;70.25;32.17;;;;;;;-1.74;78.07;100281.81;5109774;28;20101;-73
2022/01/13 03:44:27;;;;;;;64.70;29.25;;;;;;;-1.74;78.40;100273.75;5110113;28;20129;-74
2022/01/13 03:46:52;;;;;;;72.55;31.92;;;;;;;-1.75;78.17;100281.00;5108163;28;20016;-73
2022/01/13 03:49:17;;;;;;;65.63;32.13;;;;;;;-1.72;78.75;100279.81;5110090;28;20467;-73
2022/01/13 03:51:52;;;;;;;70.55;33.58;;;;;;;-1.71;78.24;100279.66;5110645;27;20174;-73
2022/01/13 03:54:33;;;;;;;78.45;34.95;;;;;;;-1.71;78.15;100276.97;5109632;28;20024;-74
2022/01/13 03:57:40;;;;;;;73.85;35.33;;;;;;;-1.75;78.20;100283.69;5108551;28;20046;-73
2022/01/13 04:00:27;;;;;;;69.80;32.00;;;;;;;-1.76;78.26;100290.06;5109807;28;20023;-73
2022/01/13 04:02:52;;;;;;;71.20;32.78;;;;;;;-1.76;78.51;100281.16;5107586;28;20103;-73
2022/01/13 04:05:18;;;;;;;75.43;35.08;;;;;;;-1.72;78.29;100283.34;5109228;28;20574;-74
2022/01/13 04:07:43;;;;;;;74.13;35.03;;;;;;;-1.68;77.99;100281.16;5109492;28;20111;-73
2022/01/13 04:10:09;;;;;;;68.30;31.75;;;;;;;-1.60;78.38;100280.28;5109610;28;20068;-73
2022/01/13 04:12:35;;;;;;;78.10;37.15;;;;;;;-1.61;78.35;100281.28;5109709;28;20019;-74
2022/01/13 04:15:02;;;;;;;73.95;33.97;;;;;;;-1.63;78.62;100286.84;5090244;28;20426;-73
2022/01/13 04:17:28;;;;;;;75.95;34.30;;;;;;;-1.66;78.44;100277.28;5108982;28;20514;-73
2022/01/13 04:19:54;;;;;;;74.85;35.08;;;;;;;-1.67;78.59;100272.91;5110280;28;20111;-72
2022/01/13 04:22:20;;;;;;;73.47;34.30;;;;;;;-1.68;78.31;100273.06;5109791;28;20471;-73
2022/01/13 04:24:48;;;;;;;71.70;32.28;;;;;;;-1.69;78.59;100279.47;5109693;28;20047;-74
2022/01/13 04:27:30;;;;;;;82.90;35.42;;;;;;;-1.70;78.84;100277.78;5108969;28;20376;-73
2022/01/13 04:32:39;;;;;;;76.30;35.50;;;;;;;-1.71;78.66;100287.72;5109434;28;20035;-73
2022/01/13 04:35:05;;;;;;;76.57;34.28;;;;;;;-1.69;78.82;100282.16;5109594;28;20126;-72
2022/01/13 04:37:31;;;;;;;78.32;36.47;;;;;;;-1.70;78.50;100275.09;5109105;28;20502;-73
2022/01/13 04:39:56;;;;;;;74.72;35.58;;;;;;;-1.69;78.64;100274.94;5109161;28;20032;-73
2022/01/13 04:42:22;;;;;;;72.00;33.30;;;;;;;-1.65;78.72;100283.50;5109174;28;20027;-73
2022/01/13 04:44:48;;;;;;;75.28;33.40;;;;;;;-1.62;78.51;100275.09;5109036;28;20034;-73
2022/01/13 04:47:13;;;;;;;71.22;33.72;;;;;;;-1.57;78.67;100269.19;5109199;28;20019;-73
2022/01/13 04:49:39;;;;;;;75.90;32.97;;;;;;;-1.52;78.51;100269.50;5109487;28;20028;-73
2022/01/13 04:52:04;;;;;;;73.65;35.83;;;;;;;-1.52;78.45;100273.03;5112595;28;20059;-72
2022/01/13 04:54:30;;;;;;;77.20;33.83;;;;;;;-1.53;78.42;100260.59;5109561;28;20705;-73
2022/01/13 04:57:07;;;;;;;78.43;34.92;;;;;;;-1.54;78.35;100256.22;5109231;28;20027;-73
2022/01/13 04:59:33;;;;;;;71.93;33.22;;;;;;;-1.56;78.09;100252.00;5109274;28;20123;-73
2022/01/13 05:02:00;;;;;;;77.70;35.70;;;;;;;-1.54;78.46;100263.44;5109247;28;20534;-73
2022/01/13 05:04:26;;;;;;;73.57;33.28;;;;;;;-1.56;78.27;100254.72;5109925;28;20028;-73
2022/01/13 05:06:51;;;;;;;71.22;30.65;;;;;;;-1.53;78.32;100263.28;5113007;28;20107;-73
2022/01/13 05:09:17;;;;;;;79.53;33.42;;;;;;;-1.53;78.28;100263.28;5116940;27;20116;-73
2022/01/13 05:11:42;;;;;;;69.07;31.20;;;;;;;-1.53;78.20;100257.91;5114428;28;20448;-73
2022/01/13 05:14:08;;;;;;;73.95;30.80;;;;;;;-1.53;78.44;100257.06;5114339;28;20023;-73
2022/01/13 05:16:52;;;;;;;80.85;32.22;;;;;;;-1.53;78.22;100275.91;5114094;28;20386;-73
2022/01/13 05:19:26;;;;;;;84.35;34.25;;;;;;;-1.57;77.98;100278.09;5114426;28;20240;-73
2022/01/13 05:24:24;;;;;;;81.47;32.88;;;;;;;-1.56;78.00;100277.09;5114381;28;20038;-73
2022/01/13 05:26:49;;;;;;;81.18;34.45;;;;;;;-1.55;78.25;100281.47;5113516;28;20035;-74
2022/01/13 05:29:19;;;;;;;76.47;31.83;;;;;;;-1.59;78.69;100274.75;5114805;27;20029;-74
2022/01/13 05:31:44;;;;;;;78.63;34.42;;;;;;;-1.60;78.32;100274.91;5114087;28;20510;-74
2022/01/13 05:34:10;;;;;;;87.30;37.03;;;;;;;-1.57;77.96;100277.25;5114257;28;20102;-73
2022/01/13 05:36:36;;;;;;;76.10;32.28;;;;;;;-1.57;78.24;100277.25;5113596;28;20129;-74
2022/01/13 05:39:01;;;;;;;74.22;31.70;;;;;;;-1.57;78.21;100280.78;5114081;28;20102;-73
2022/01/13 05:41:27;;;;;;;68.40;29.02;;;;;;;-1.58;78.34;100281.81;5113468;28;20130;-73
2022/01/13 05:43:53;;;;;;;80.78;34.17;;;;;;;-1.56;78.32;100281.63;5114125;28;20028;-73
2022/01/13 05:46:18;;;;;;;89.70;37.03;;;;;;;-1.56;78.42;100281.63;5113057;28;20039;-71
2022/01/13 05:48:44;;;;;;;94.85;42.05;;;;;;;-1.59;78.07;100282.81;5113533;28;20027;-73
2022/01/13 05:51:09;;;;;;;84.07;35.72;;;;;;;-1.58;78.12;100271.03;5113772;28;20106;-73
2022/01/13 05:53:34;;;;;;;84.35;31.77;;;;;;;-1.57;77.96;100264.66;5113815;28;20032;-73
2022/01/13 05:56:00;;;;;;;76.60;31.10;;;;;;;-1.59;78.07;100261.28;5093709;28;20464;-74
2022/01/13 05:58:25;;;;;;;74.22;31.40;;;;;;;-1.61;78.07;100251.69;5113255;28;20046;-74
2022/01/13 06:00:51;;;;;;;76.85;28.90;;;;;;;-1.64;78.28;100260.97;5114333;27;20173;-74
2022/01/13 06:03:16;;;;;;;87.40;33.85;;;;;;;-1.70;78.17;100261.63;5112214;28;21995;-73
2022/01/13 06:05:42;;;;;;;84.97;35.53;;;;;;;-1.78;78.11;100262.50;5097330;27;20126;-71
2022/01/13 06:08:07;;;;;;;78.60;31.83;;;;;;;-1.82;78.14;100255.78;5113255;27;20024;-73
2022/01/13 06:10:32;;;;;;;80.05;34.28;;;;;;;-1.82;78.18;100242.34;5113086;28;20095;-73
2022/01/13 06:12:58;;;;;;;78.63;31.67;;;;;;;-1.82;78.75;100240.47;5093286;28;20076;-73
2022/01/13 06:15:25;;;;;;;86.47;34.63;;;;;;;-1.84;78.48;100231.75;5112101;28;20035;-74
2022/01/13 06:17:53;;;;;;;82.70;34.55;;;;;;;-1.85;78.47;100237.28;5110791;28;20011;-73
2022/01/13 06:20:20;;;;;;;82.50;33.70;;;;;;;-1.81;78.25;100233.25;5112423;28;20118;-73
2022/01/13 06:22:50;;;;;;;93.65;34.97;;;;;;;-1.82;78.30;100236.97;5112461;28;20020;-73
2022/01/13 06:25:16;;;;;;;90.22;36.55;;;;;;;-1.84;78.78;100239.84;5091563;28;20493;-73
2022/01/13 06:27:42;;;;;;;90.55;36.72;;;;;;;-1.85;78.70;100238.16;5092697;28;20390;-73
2022/01/13 06:30:11;;;;;;;83.72;34.17;;;;;;;-1.85;78.33;100248.06;5112512;28;20098;-71
2022/01/13 06:32:38;;;;;;;91.40;34.17;;;;;;;-1.85;78.65;100253.44;5112081;27;20139;-73
2022/01/13 06:35:04;;;;;;;103.38;39.15;;;;;;;-1.86;78.40;100254.44;5093852;28;20395;-72
2022/01/13 06:37:29;;;;;;;94.72;37.03;;;;;;;-1.88;78.21;100265.38;5111840;28;20023;-71
2022/01/13 06:39:54;;;;;;;81.32;32.53;;;;;;;-1.85;78.15;100266.88;5111795;28;20032;-71
2022/01/13 06:42:20;;;;;;;106.70;41.25;;;;;;;-1.83;78.27;100265.69;5111098;28;20067;-72
2022/01/13 06:44:45;;;;;;;104.22;40.88;;;;;;;-1.83;78.18;100268.38;5111726;28;20031;-71
2022/01/13 06:47:11;;;;;;;111.03;41.50;;;;;;;-1.83;78.12;100272.94;5111158;28;20536;-73
2022/01/13 06:49:38;;;;;;;135.30;51.10;;;;;;;-1.83;78.38;100270.25;5112498;27;20024;-72
2022/01/13 06:52:04;;;;;;;103.13;40.47;;;;;;;-1.86;78.38;100263.38;5109388;28;20027;-74
2022/01/13 06:54:29;;;;;;;91.63;38.45;;;;;;;-1.88;78.36;100276.16;5112344;28;20035;-75
2022/01/13 06:56:55;;;;;;;135.65;51.67;;;;;;;-1.91;78.45;100265.72;5112190;28;20024;-74
2022/01/13 06:59:21;;;;;;;122.78;48.60;;;;;;;-1.91;78.38;100273.78;5112252;28;20015;-74
2022/01/13 07:01:48;;;;;;;92.50;37.90;;;;;;;-1.89;78.36;100262.84;5111924;28;20024;-74
2022/01/13 07:04:14;;;;;;;89.93;39.15;;;;;;;-1.88;78.52;100267.22;5112158;28;20054;-73
2022/01/13 07:06:41;;;;;;;92.88;36.60;;;;;;;-1.89;78.56;100273.59;5112110;28;20020;-75
2022/01/13 07:09:09;;;;;;;72.18;29.10;;;;;;;-1.86;78.62;100289.41;5109497;27;20020;-72
2022/01/13 07:11:35;;;;;;;70.05;28.88;;;;;;;-1.84;78.19;100300.84;5111414;28;20491;-75
2022/01/13 07:14:01;;;;;;;74.85;29.25;;;;;;;-1.84;78.27;100301.69;5110724;28;20042;-72
2022/01/13 07:16:26;;;;;;;66.07;25.35;;;;;;;-1.84;78.27;100309.75;5111199;28;20031;-73
2022/01/13 07:18:52;;;;;;;66.70;27.70;;;;;;;-1.85;78.23;100304.53;5110901;28;20036;-71
2022/01/13 07:21:19;;;;;;;73.50;29.45;;;;;;;-1.84;78.43;100290.09;5111042;28;20026;-72
2022/01/13 07:23:44;;;;;;;75.47;30.33;;;;;;;-1.83;78.71;100297.13;5092634;28;20016;-72
2022/01/13 07:26:10;;;;;;;66.53;27.33;;;;;;;-1.83;78.43;100306.03;5109471;28;20027;-75
2022/01/13 07:28:36;;;;;;;70.40;28.10;;;;;;;-1.82;78.44;100296.97;5109584;28;20452;-75
2022/01/13 07:31:01;;;;;;;72.25;32.25;;;;;;;-1.82;78.57;100280.00;5108362;28;21076;-72
2022/01/13 07:33:27;;;;;;;68.05;29.42;;;;;;;-1.84;78.40;100282.88;5108105;28;20036;-71
2022/01/13 07:35:54;;;;;;;66.97;26.27;;;;;;;-1.82;78.40;100277.31;5091088;28;20027;-74
2022/01/13 07:38:19;;;;;;;67.95;27.58;;;;;;;-1.83;78.56;100279.13;5092964;28;20508;-68
2022/01/13 07:40:45;;;;;;;65.90;27.00;;;;;;;-1.86;78.42;100268.75;5109522;28;20043;-69
2022/01/13 07:43:10;;;;;;;62.97;24.58;;;;;;;-1.86;79.22;100268.75;5090222;28;20160;-71
2022/01/13 07:45:36;;;;;;;68.57;26.15;;;;;;;-1.90;78.54;100262.03;5107898;28;20043;-71
2022/01/13 07:48:01;;;;;;;66.78;23.98;;;;;;;-1.89;78.96;100257.47;5109180;28;20463;-71
2022/01/13 07:50:27;;;;;;;58.63;24.00;;;;;;;-1.91;79.13;100249.59;5109663;28;20122;-71
2022/01/13 07:52:53;;;;;;;62.03;25.52;;;;;;;-1.89;79.00;100242.19;5091026;28;20028;-71
2022/01/13 07:55:18;;;;;;;53.65;22.65;;;;;;;-1.87;78.97;100237.47;5109390;28;20418;-74
2022/01/13 07:57:43;;;;;;;68.28;29.67;;;;;;;-1.88;78.98;100234.94;5108958;27;20023;-74
2022/01/13 08:00:11;;;;;;;62.00;26.40;;;;;;;-1.88;78.44;100225.03;5108013;28;20396;-73
2022/01/13 08:02:37;;;;;;;60.33;23.88;;;;;;;-1.85;79.13;100216.63;5109250;28;20143;-75
2022/01/13 08:05:04;;;;;;;75.88;31.15;;;;;;;-1.83;78.94;100209.19;5110212;28;20040;-75
2022/01/13 08:07:29;;;;;;;78.97;32.53;;;;;;;-1.81;79.14;100209.03;5092355;28;20085;-76
2022/01/13 08:09:55;;;;;;;57.63;24.00;;;;;;;-1.80;78.80;100203.47;5106951;27;20527;-74
2022/01/13 08:12:20;;;;;;;71.47;26.33;;;;;;;-1.76;78.94;100189.69;5109912;28;20024;-73
2022/01/13 08:14:46;;;;;;;79.97;27.58;;;;;;;-1.75;78.86;100184.16;5094982;28;20067;-76
2022/01/13 08:19:45;;;;;;;78.03;28.52;;;;;;;-1.73;78.74;100189.34;5108565;28;20561;-76
2022/01/13 08:20:00;;;;;;;69.55;26.70;;;;;;;-1.70;78.75;100179.09;5102996;28;20036;-76
2022/01/13 08:22:25;;;;;;;60.85;24.17;;;;;;;-1.63;78.66;100179.22;5095185;28;21229;-75
2022/01/13 08:24:50;;;;;;;64.13;26.08;;;;;;;-1.55;78.73;100189.97;5105760;28;20083;-75
2022/01/13 08:27:16;;;;;;;60.63;23.92;;;;;;;-1.45;78.31;100191.63;5106616;28;20039;-75
2022/01/13 08:29:41;;;;;;;59.15;23.00;;;;;;;-1.36;78.75;100202.16;5107530;28;20035;-74
2022/01/13 08:32:07;;;;;;;69.47;28.45;;;;;;;-1.28;78.40;100203.16;5107641;28;20097;-72
2022/01/13 08:34:32;;;;;;;53.13;23.08;;;;;;;-1.19;78.39;100202.06;5092977;28;20034;-75
2022/01/13 08:36:58;;;;;;;61.88;25.42;;;;;;;-1.09;77.91;100200.00;5086342;28;20390;-76
2022/01/13 08:39:24;;;;;;;58.17;25.40;;;;;;;-1.03;77.87;100193.09;5105889;28;20031;-73
2022/01/13 08:41:50;;;;;;;59.45;25.25;;;;;;;-0.95;77.64;100190.31;5112939;28;20058;-73
2022/01/13 08:44:15;;;;;;;64.88;25.80;;;;;;;-0.87;77.68;100189.47;5112704;28;20023;-73
2022/01/13 08:46:41;;;;;;;69.97;25.88;;;;;;;-0.81;77.47;100204.06;5092361;28;20058;-73
2022/01/13 08:49:06;;;;;;;71.57;28.30;;;;;;;-0.73;77.48;100203.16;5095818;28;20395;-71
2022/01/13 08:51:32;;;;;;;54.42;23.45;;;;;;;-0.66;77.08;100204.13;5113128;27;20459;-74
2022/01/13 08:53:58;;;;;;;62.17;26.52;;;;;;;-0.62;76.87;100197.34;5112884;28;20023;-73
2022/01/13 08:56:23;;;;;;;58.72;22.75;;;;;;;-0.56;76.56;100206.56;5112261;28;20089;-73
2022/01/13 08:58:49;;;;;;;55.25;22.75;;;;;;;-0.54;76.54;100212.63;5095098;28;20475;-73
2022/01/13 09:01:14;;;;;;;57.83;24.15;;;;;;;-0.49;76.13;100216.47;5113649;28;20028;-74
2022/01/13 09:03:40;;;;;;;61.13;25.10;;;;;;;-0.46;76.11;100224.19;5114126;28;20034;-73
2022/01/13 09:06:06;;;;;;;55.10;24.55;;;;;;;-0.41;76.22;100214.72;5112231;27;20526;-74
2022/01/13 09:08:31;;;;;;;52.42;22.83;;;;;;;-0.34;76.23;100215.66;5113685;28;20042;-73
2022/01/13 09:10:57;;;;;;;48.90;23.13;;;;;;;-0.28;75.78;100222.19;5114471;27;20027;-74
2022/01/13 09:13:23;;;;;;;54.05;24.45;;;;;;;-0.25;75.46;100202.97;5113142;27;20034;-73
2022/01/13 09:15:58;;;;;;;55.63;25.42;;;;;;;-0.22;75.59;100194.50;5112818;28;20039;-73
2022/01/13 09:18:48;;;;;;;61.85;26.50;;;;;;;-0.18;75.39;100201.19;5111684;28;20035;-73
2022/01/13 09:21:17;;;;;;;53.97;23.33;;;;;;;-0.18;75.40;100193.97;5098135;28;20028;-72
2022/01/13 09:23:43;;;;;;;59.67;27.30;;;;;;;-0.12;75.44;100197.75;5111823;28;20032;-71
2022/01/13 09:26:08;;;;;;;62.47;27.55;;;;;;;-0.05;75.51;100193.31;5112075;28;20484;-74
2022/01/13 09:28:35;;;;;;;78.63;38.25;;;;;;;-0.02;75.39;100192.97;5094279;28;20049;-73
2022/01/13 09:31:00;;;;;;;54.33;25.88;;;;;;;0.05;74.88;100184.13;5113085;28;20074;-73
2022/01/13 09:33:26;;;;;;;58.67;24.35;;;;;;;0.11;75.43;100184.22;5113177;28;20538;-75
2022/01/13 09:35:51;;;;;;;50.08;21.85;;;;;;;0.16;75.25;100172.88;5112994;28;20036;-76
2022/01/13 09:38:17;;;;;;;53.60;22.38;;;;;;;0.19;75.17;100167.13;5113050;28;20026;-74
2022/01/13 09:40:47;;;;;;;52.47;21.98;;;;;;;0.18;74.44;100184.34;5112947;28;20105;-75
2022/01/13 09:43:13;;;;;;;;;;;;;;;0.21;74.26;100180.41;5112422;27;20077;-72
2022/01/13 09:45:39;;;;;;;55.10;22.45;;;;;;;0.22;74.73;100188.31;5111728;28;19920;-71
2022/01/13 09:48:04;;;;;;;56.95;23.13;;;;;;;0.21;74.65;100169.63;5111960;28;20028;-72
2022/01/13 09:50:30;;;;;;;63.25;24.48;;;;;;;0.21;74.68;100156.94;5112612;28;20092;-71
2022/01/13 09:52:56;;;;;;;88.18;35.22;;;;;;;0.24;74.88;100147.66;5112546;28;20032;-73
2022/01/13 09:55:21;;;;;;;72.80;29.65;;;;;;;0.27;74.65;100150.00;5094625;28;20050;-72
2022/01/13 09:57:51;;;;;;;85.93;37.10;;;;;;;0.28;74.55;100157.06;5111027;28;20080;-71
2022/01/13 10:00:18;;;;;;;;;;;;;;;0.30;74.65;100168.50;5113187;28;20032;-72
2022/01/13 10:02:44;;;;;;;78.15;30.60;;;;;;;0.35;74.49;100158.00;5112156;28;19972;-72
2022/01/13 10:05:10;;;;;;;76.63;29.95;;;;;;;0.42;74.69;100152.69;5112345;28;20418;-74
2022/01/13 10:07:37;;;;;;;75.85;29.38;;;;;;;0.49;74.63;100159.00;5111849;28;20536;-73
2022/01/13 10:10:09;;;;;;;73.70;28.10;;;;;;;0.65;74.42;100149.00;5112291;28;20033;-73
2022/01/13 10:12:40;;;;;;;55.88;23.88;;;;;;;0.77;74.44;100141.25;5112567;28;20107;-73
2022/01/13 10:17:51;;;;;;;64.38;26.95;;;;;;;1.06;74.41;100125.97;5111424;28;20443;-72
2022/01/13 10:20:19;;;;;;;59.40;27.52;;;;;;;1.21;73.70;100124.06;5112500;28;20051;-72
2022/01/13 10:22:46;;;;;;;63.30;29.88;;;;;;;1.37;73.61;100122.09;5112056;28;20387;-72
2022/01/13 10:25:34;;;;;;;56.90;27.00;;;;;;;1.46;73.59;100107.41;5112464;28;20501;-72
2022/01/13 10:28:13;;;;;;;58.53;24.77;;;;;;;1.54;72.91;100109.97;5111813;28;20032;-73
2022/01/13 10:30:39;;;;;;;58.55;26.65;;;;;;;1.57;72.15;100119.56;5112494;28;20030;-73
2022/01/13 10:33:19;;;;;;;55.78;24.50;;;;;;;1.53;72.33;100113.72;5112587;28;20387;-72
2022/01/13 10:35:47;;;;;;;57.92;25.08;;;;;;;1.52;70.88;100105.78;5088580;28;20019;-72
2022/01/13 10:38:16;;;;;;;57.13;25.40;;;;;;;1.49;71.76;100102.44;5109878;28;20540;-73
2022/01/13 10:40:43;;;;;;;52.63;24.98;;;;;;;1.55;72.36;100094.56;5110734;28;20433;-73
2022/01/13 10:43:11;;;;;;;56.65;24.80;;;;;;;1.59;71.60;100082.34;5111078;28;20503;-73
2022/01/13 10:45:44;;;;;;;59.28;27.45;;;;;;;1.60;71.34;100092.97;5112651;28;20444;-73
2022/01/13 10:48:13;;;;;;;59.08;26.58;;;;;;;1.67;72.32;100100.28;5111338;28;20026;-72
2022/01/13 10:51:04;;;;;;;55.15;25.23;;;;;;;1.69;71.34;100090.94;5112588;28;20028;-74
2022/01/13 10:53:38;;;;;;;56.80;24.75;;;;;;;1.70;71.11;100086.34;5113267;28;20038;-72
2022/01/13 10:56:05;;;;;;;50.92;20.58;;;;;;;1.65;71.28;100086.97;5112679;28;20035;-74
2022/01/13 10:58:34;;;;;;;60.10;25.77;;;;;;;1.61;70.88;100088.38;5110478;27;20178;-74
2022/01/13 11:01:00;;;;;;;52.50;24.52;;;;;;;1.62;71.24;100098.16;5111108;28;20020;-73
2022/01/13 11:03:28;;;;;;;52.60;22.77;;;;;;;1.67;71.74;100092.16;5111423;27;20043;-74
2022/01/13 11:06:00;;;;;;;53.83;24.80;;;;;;;1.68;71.15;100083.00;5109778;28;20368;-74
2022/01/13 11:08:27;;;;;;;48.13;22.50;;;;;;;1.69;71.21;100080.13;5090956;27;20099;-71
2022/01/13 11:10:55;;;;;;;58.90;24.40;;;;;;;1.72;71.38;100077.03;5110368;28;20391;-71
2022/01/13 11:13:23;;;;;;;54.53;23.33;;;;;;;1.72;70.91;100087.84;5094739;28;20059;-71
2022/01/13 11:15:53;;;;;;;53.05;23.88;;;;;;;1.74;71.51;100090.34;5092237;27;20091;-73
2022/01/13 11:18:20;;;;;;;52.03;21.38;;;;;;;1.75;71.95;100082.03;5109182;28;20062;-72
2022/01/13 11:20:47;;;;;;;55.65;24.48;;;;;;;1.72;71.73;100074.31;5110739;28;20098;-71
2022/01/13 11:23:15;;;;;;;52.83;22.83;;;;;;;1.67;72.05;100071.38;5110383;27;20023;-70
2022/01/13 11:25:42;;;;;;;48.63;22.15;;;;;;;1.62;71.68;100069.28;5110150;28;20027;-71
2022/01/13 11:28:08;;;;;;;51.58;22.13;;;;;;;1.62;72.74;100071.13;5108449;28;20023;-70
2022/01/13 11:30:34;;;;;;;52.25;22.02;;;;;;;1.61;72.88;100064.03;5092756;28;20020;-70
2022/01/13 11:32:59;;;;;;;49.05;22.95;;;;;;;1.59;72.94;100058.84;5095761;28;20011;-70
2022/01/13 11:35:28;;;;;;;45.95;20.23;;;;;;;1.63;73.72;100059.28;5112930;27;20042;-70
2022/01/13 11:37:59;;;;;;;50.70;21.35;;;;;;;1.66;73.32;100053.47;5111830;27;20069;-70
2022/01/13 11:40:27;;;;;;;;;;;;;;;1.63;73.87;100048.47;5110932;27;20040;-70
2022/01/13 11:42:53;;;;;;;50.63;22.13;;;;;;;1.59;74.28;100044.47;5109711;28;19950;-70